METAR Data
IDs: Format: Raw Decoded Include TAF

Data at: 0108 UTC 20 Jul 2019

METAR for:KEST (Estherville Muni, IA, US)
Text:KEST 200052Z AUTO 22008G17KT 10SM CLR 30/26 A2968 RMK AO2 SLP037 T03000261
Temperature: 30.0°C ( 86°F)
Dewpoint: 26.1°C ( 79°F) [RH = 80%]
Pressure (altimeter):29.68 inches Hg (1005.2 mb) [Sea level pressure: 1003.7 mb]
Winds:from the SW (220 degrees) at 9 MPH (8 knots; 4.1 m/s) gusting to 20 MPH (17 knots; 8.7 m/s)
Visibility:10 or more sm (16+ km)
Ceiling:at least 12,000 feet AGL
Clouds:sky clear below 12,000 feet AGL
QC Flag:automated observation with no human augmentation